sensor_id;sensor_type;location;lat;lon;timestamp;temperature;humidity
31661;DHT22;18267;52.234;7.444;2023-12-07T00:02:07;3.20;99.90
31661;DHT22;18267;52.234;7.444;2023-12-07T00:04:33;3.20;99.90
31661;DHT22;18267;52.234;7.444;2023-12-07T00:06:58;3.20;99.90
31661;DHT22;18267;52.234;7.444;2023-12-07T00:09:24;3.20;99.90
31661;DHT22;18267;52.234;7.444;2023-12-07T00:11:49;3.20;99.90
31661;DHT22;18267;52.234;7.444;2023-12-07T00:14:15;3.20;99.90
31661;DHT22;18267;52.234;7.444;2023-12-07T00:16:41;3.10;99.90
31661;DHT22;18267;52.234;7.444;2023-12-07T00:19:06;3.10;99.90
31661;DHT22;18267;52.234;7.444;2023-12-07T00:21:32;3.10;99.90
31661;DHT22;18267;52.234;7.444;2023-12-07T00:23:57;3.10;99.90
31661;DHT22;18267;52.234;7.444;2023-12-07T00:26:23;3.10;99.90
31661;DHT22;18267;52.234;7.444;2023-12-07T00:28:48;3.10;99.90
31661;DHT22;18267;52.234;7.444;2023-12-07T00:31:14;3.20;99.90
31661;DHT22;18267;52.234;7.444;2023-12-07T00:33:39;3.10;99.90
31661;DHT22;18267;52.234;7.444;2023-12-07T00:36:05;3.10;99.90
31661;DHT22;18267;52.234;7.444;2023-12-07T00:38:31;3.20;99.90
31661;DHT22;18267;52.234;7.444;2023-12-07T00:40:57;3.30;99.90
31661;DHT22;18267;52.234;7.444;2023-12-07T00:43:23;3.30;99.90
31661;DHT22;18267;52.234;7.444;2023-12-07T00:45:49;3.20;99.90
31661;DHT22;18267;52.234;7.444;2023-12-07T00:48:14;3.20;99.90
31661;DHT22;18267;52.234;7.444;2023-12-07T00:50:40;3.30;99.90
31661;DHT22;18267;52.234;7.444;2023-12-07T00:53:05;3.30;99.90
31661;DHT22;18267;52.234;7.444;2023-12-07T00:55:31;3.30;99.90
31661;DHT22;18267;52.234;7.444;2023-12-07T00:57:56;3.30;99.90
31661;DHT22;18267;52.234;7.444;2023-12-07T01:00:22;3.30;99.90
31661;DHT22;18267;52.234;7.444;2023-12-07T01:02:48;3.40;99.90
31661;DHT22;18267;52.234;7.444;2023-12-07T01:05:13;3.50;99.90
31661;DHT22;18267;52.234;7.444;2023-12-07T01:07:39;3.50;99.90
31661;DHT22;18267;52.234;7.444;2023-12-07T01:10:05;3.60;99.90
31661;DHT22;18267;52.234;7.444;2023-12-07T01:12:31;3.50;99.90
31661;DHT22;18267;52.234;7.444;2023-12-07T01:14:56;3.50;99.90
31661;DHT22;18267;52.234;7.444;2023-12-07T01:17:22;3.50;99.90
31661;DHT22;18267;52.234;7.444;2023-12-07T01:19:47;3.40;99.90
31661;DHT22;18267;52.234;7.444;2023-12-07T01:22:13;3.40;99.90
31661;DHT22;18267;52.234;7.444;2023-12-07T01:24:39;3.40;99.90
31661;DHT22;18267;52.234;7.444;2023-12-07T01:27:04;3.40;99.90
31661;DHT22;18267;52.234;7.444;2023-12-07T01:29:30;3.50;99.90
31661;DHT22;18267;52.234;7.444;2023-12-07T01:31:56;3.40;99.90
31661;DHT22;18267;52.234;7.444;2023-12-07T01:34:21;3.50;99.90
31661;DHT22;18267;52.234;7.444;2023-12-07T01:36:47;3.40;99.90
31661;DHT22;18267;52.234;7.444;2023-12-07T01:39:12;3.40;99.90
31661;DHT22;18267;52.234;7.444;2023-12-07T01:41:39;3.50;99.90
31661;DHT22;18267;52.234;7.444;2023-12-07T01:44:05;3.30;99.90
31661;DHT22;18267;52.234;7.444;2023-12-07T01:46:31;3.20;99.90
31661;DHT22;18267;52.234;7.444;2023-12-07T01:48:57;3.30;99.90
31661;DHT22;18267;52.234;7.444;2023-12-07T01:51:23;3.30;99.90
31661;DHT22;18267;52.234;7.444;2023-12-07T01:53:49;3.20;99.90
31661;DHT22;18267;52.234;7.444;2023-12-07T01:56:15;3.20;99.90
31661;DHT22;18267;52.234;7.444;2023-12-07T01:58:42;3.10;99.90
31661;DHT22;18267;52.234;7.444;2023-12-07T02:01:07;3.10;99.90
31661;DHT22;18267;52.234;7.444;2023-12-07T02:03:34;3.00;99.90
31661;DHT22;18267;52.234;7.444;2023-12-07T02:06:01;3.00;99.90
31661;DHT22;18267;52.234;7.444;2023-12-07T02:08:26;3.00;99.90
31661;DHT22;18267;52.234;7.444;2023-12-07T02:10:52;2.90;99.90
31661;DHT22;18267;52.234;7.444;2023-12-07T02:13:19;2.90;99.90
31661;DHT22;18267;52.234;7.444;2023-12-07T02:15:45;2.80;99.90
31661;DHT22;18267;52.234;7.444;2023-12-07T02:18:25;2.80;99.90
31661;DHT22;18267;52.234;7.444;2023-12-07T02:21:37;2.70;99.90
31661;DHT22;18267;52.234;7.444;2023-12-07T02:24:05;2.70;99.90
31661;DHT22;18267;52.234;7.444;2023-12-07T02:26:35;2.80;99.90
31661;DHT22;18267;52.234;7.444;2023-12-07T02:29:01;2.80;99.90
31661;DHT22;18267;52.234;7.444;2023-12-07T02:31:27;2.90;99.90
31661;DHT22;18267;52.234;7.444;2023-12-07T02:33:53;2.80;99.90
31661;DHT22;18267;52.234;7.444;2023-12-07T02:36:20;2.90;99.90
31661;DHT22;18267;52.234;7.444;2023-12-07T02:38:49;3.00;99.90
31661;DHT22;18267;52.234;7.444;2023-12-07T02:41:17;2.90;99.90
31661;DHT22;18267;52.234;7.444;2023-12-07T02:43:43;2.90;99.90
31661;DHT22;18267;52.234;7.444;2023-12-07T02:46:09;2.90;99.90
31661;DHT22;18267;52.234;7.444;2023-12-07T02:48:35;2.90;99.90
31661;DHT22;18267;52.234;7.444;2023-12-07T02:51:01;2.90;99.90
31661;DHT22;18267;52.234;7.444;2023-12-07T02:53:26;3.10;99.90
31661;DHT22;18267;52.234;7.444;2023-12-07T02:55:52;3.10;99.90
31661;DHT22;18267;52.234;7.444;2023-12-07T02:58:17;3.10;99.90
31661;DHT22;18267;52.234;7.444;2023-12-07T03:00:43;3.10;99.90
31661;DHT22;18267;52.234;7.444;2023-12-07T03:03:09;3.20;99.90
31661;DHT22;18267;52.234;7.444;2023-12-07T03:05:34;3.30;99.90
31661;DHT22;18267;52.234;7.444;2023-12-07T03:08:00;3.40;99.90
31661;DHT22;18267;52.234;7.444;2023-12-07T03:10:25;3.40;99.90
31661;DHT22;18267;52.234;7.444;2023-12-07T03:12:51;3.40;99.90
31661;DHT22;18267;52.234;7.444;2023-12-07T03:15:16;3.40;99.90
31661;DHT22;18267;52.234;7.444;2023-12-07T03:17:42;3.50;99.90
31661;DHT22;18267;52.234;7.444;2023-12-07T03:20:09;3.50;99.90
31661;DHT22;18267;52.234;7.444;2023-12-07T03:22:35;3.50;99.90
31661;DHT22;18267;52.234;7.444;2023-12-07T03:25:01;3.50;99.90
31661;DHT22;18267;52.234;7.444;2023-12-07T03:27:26;3.40;99.90
31661;DHT22;18267;52.234;7.444;2023-12-07T03:29:53;3.40;99.90
31661;DHT22;18267;52.234;7.444;2023-12-07T03:32:19;3.50;99.90
31661;DHT22;18267;52.234;7.444;2023-12-07T03:34:44;3.30;99.90
31661;DHT22;18267;52.234;7.444;2023-12-07T03:37:10;3.30;99.90
31661;DHT22;18267;52.234;7.444;2023-12-07T03:39:35;3.40;99.90
31661;DHT22;18267;52.234;7.444;2023-12-07T03:42:01;3.30;99.90
31661;DHT22;18267;52.234;7.444;2023-12-07T03:44:26;3.30;99.90
31661;DHT22;18267;52.234;7.444;2023-12-07T03:46:52;3.30;99.90
31661;DHT22;18267;52.234;7.444;2023-12-07T03:49:18;3.30;99.90
31661;DHT22;18267;52.234;7.444;2023-12-07T03:51:44;3.30;99.90
31661;DHT22;18267;52.234;7.444;2023-12-07T03:54:09;3.30;99.90
31661;DHT22;18267;52.234;7.444;2023-12-07T03:56:35;3.30;99.90
31661;DHT22;18267;52.234;7.444;2023-12-07T03:59:01;3.30;99.90
31661;DHT22;18267;52.234;7.444;2023-12-07T04:01:28;3.30;99.90
31661;DHT22;18267;52.234;7.444;2023-12-07T04:03:55;3.10;99.90
31661;DHT22;18267;52.234;7.444;2023-12-07T04:06:22;3.20;99.90
31661;DHT22;18267;52.234;7.444;2023-12-07T04:08:48;3.30;99.90
31661;DHT22;18267;52.234;7.444;2023-12-07T04:11:14;3.20;99.90
31661;DHT22;18267;52.234;7.444;2023-12-07T04:13:40;3.10;99.90
31661;DHT22;18267;52.234;7.444;2023-12-07T04:16:07;3.00;99.90
31661;DHT22;18267;52.234;7.444;2023-12-07T04:18:32;3.00;99.90
31661;DHT22;18267;52.234;7.444;2023-12-07T04:20:58;2.90;99.90
31661;DHT22;18267;52.234;7.444;2023-12-07T04:23:24;2.90;99.90
31661;DHT22;18267;52.234;7.444;2023-12-07T04:25:50;2.80;99.90
31661;DHT22;18267;52.234;7.444;2023-12-07T04:28:16;2.90;99.90
31661;DHT22;18267;52.234;7.444;2023-12-07T04:30:41;3.00;99.90
31661;DHT22;18267;52.234;7.444;2023-12-07T04:33:07;3.00;99.90
31661;DHT22;18267;52.234;7.444;2023-12-07T04:35:32;3.00;99.90
31661;DHT22;18267;52.234;7.444;2023-12-07T04:37:58;2.90;99.90
31661;DHT22;18267;52.234;7.444;2023-12-07T04:40:25;2.80;99.90
31661;DHT22;18267;52.234;7.444;2023-12-07T04:42:50;2.70;99.90
31661;DHT22;18267;52.234;7.444;2023-12-07T04:45:16;2.70;99.90
31661;DHT22;18267;52.234;7.444;2023-12-07T04:47:42;2.60;99.90
31661;DHT22;18267;52.234;7.444;2023-12-07T04:50:08;2.40;99.90
31661;DHT22;18267;52.234;7.444;2023-12-07T04:52:35;2.50;99.90
31661;DHT22;18267;52.234;7.444;2023-12-07T04:55:00;2.50;99.90
31661;DHT22;18267;52.234;7.444;2023-12-07T04:57:26;2.50;99.90
31661;DHT22;18267;52.234;7.444;2023-12-07T04:59:51;2.70;99.90
31661;DHT22;18267;52.234;7.444;2023-12-07T05:02:17;2.70;99.90
31661;DHT22;18267;52.234;7.444;2023-12-07T05:04:43;2.70;99.90
31661;DHT22;18267;52.234;7.444;2023-12-07T05:07:09;2.80;99.90
31661;DHT22;18267;52.234;7.444;2023-12-07T05:09:35;2.90;99.90
31661;DHT22;18267;52.234;7.444;2023-12-07T05:12:00;2.90;99.90
31661;DHT22;18267;52.234;7.444;2023-12-07T05:14:26;2.90;99.90
31661;DHT22;18267;52.234;7.444;2023-12-07T05:16:52;2.90;99.90
31661;DHT22;18267;52.234;7.444;2023-12-07T05:19:22;2.90;99.90
31661;DHT22;18267;52.234;7.444;2023-12-07T05:21:47;2.90;99.90
31661;DHT22;18267;52.234;7.444;2023-12-07T05:24:13;2.90;99.90
31661;DHT22;18267;52.234;7.444;2023-12-07T05:26:44;2.80;99.90
31661;DHT22;18267;52.234;7.444;2023-12-07T05:29:12;2.70;99.90
31661;DHT22;18267;52.234;7.444;2023-12-07T05:31:38;2.60;99.90
31661;DHT22;18267;52.234;7.444;2023-12-07T05:34:04;2.50;99.90
31661;DHT22;18267;52.234;7.444;2023-12-07T05:36:31;2.40;99.90
31661;DHT22;18267;52.234;7.444;2023-12-07T05:38:57;2.50;99.90
31661;DHT22;18267;52.234;7.444;2023-12-07T05:41:22;2.70;99.90
31661;DHT22;18267;52.234;7.444;2023-12-07T05:43:48;2.80;99.90
31661;DHT22;18267;52.234;7.444;2023-12-07T05:46:14;2.80;99.90
31661;DHT22;18267;52.234;7.444;2023-12-07T05:48:40;2.80;99.90
31661;DHT22;18267;52.234;7.444;2023-12-07T05:51:16;2.80;99.90
31661;DHT22;18267;52.234;7.444;2023-12-07T05:53:42;2.80;99.90
31661;DHT22;18267;52.234;7.444;2023-12-07T05:56:08;2.80;99.90
31661;DHT22;18267;52.234;7.444;2023-12-07T05:58:34;2.80;99.90
31661;DHT22;18267;52.234;7.444;2023-12-07T06:01:00;2.80;99.90
31661;DHT22;18267;52.234;7.444;2023-12-07T06:03:27;2.70;99.90
31661;DHT22;18267;52.234;7.444;2023-12-07T06:05:53;2.60;99.90
31661;DHT22;18267;52.234;7.444;2023-12-07T06:08:19;2.50;99.90
31661;DHT22;18267;52.234;7.444;2023-12-07T06:10:44;2.50;99.90
31661;DHT22;18267;52.234;7.444;2023-12-07T06:13:10;2.50;99.90
31661;DHT22;18267;52.234;7.444;2023-12-07T06:15:36;2.40;99.90
31661;DHT22;18267;52.234;7.444;2023-12-07T06:18:02;2.30;99.90
31661;DHT22;18267;52.234;7.444;2023-12-07T06:20:28;2.40;99.90
31661;DHT22;18267;52.234;7.444;2023-12-07T06:22:54;2.50;99.90
31661;DHT22;18267;52.234;7.444;2023-12-07T06:25:20;2.40;99.90
31661;DHT22;18267;52.234;7.444;2023-12-07T06:27:45;2.40;99.90
31661;DHT22;18267;52.234;7.444;2023-12-07T06:30:11;2.50;99.90
31661;DHT22;18267;52.234;7.444;2023-12-07T06:32:37;2.50;99.90
31661;DHT22;18267;52.234;7.444;2023-12-07T06:35:03;2.60;99.90
31661;DHT22;18267;52.234;7.444;2023-12-07T06:37:32;2.60;99.90
31661;DHT22;18267;52.234;7.444;2023-12-07T06:39:58;2.60;99.90
31661;DHT22;18267;52.234;7.444;2023-12-07T06:42:25;2.60;99.90
31661;DHT22;18267;52.234;7.444;2023-12-07T06:44:51;2.70;99.90
31661;DHT22;18267;52.234;7.444;2023-12-07T06:47:17;2.60;99.90
31661;DHT22;18267;52.234;7.444;2023-12-07T06:49:43;2.60;99.90
31661;DHT22;18267;52.234;7.444;2023-12-07T06:52:09;2.50;99.90
31661;DHT22;18267;52.234;7.444;2023-12-07T06:54:36;2.60;99.90
31661;DHT22;18267;52.234;7.444;2023-12-07T06:57:02;2.60;99.90
31661;DHT22;18267;52.234;7.444;2023-12-07T06:59:27;2.50;99.90
31661;DHT22;18267;52.234;7.444;2023-12-07T07:01:53;2.50;99.90
31661;DHT22;18267;52.234;7.444;2023-12-07T07:04:19;2.50;99.90
31661;DHT22;18267;52.234;7.444;2023-12-07T07:06:45;2.60;99.90
31661;DHT22;18267;52.234;7.444;2023-12-07T07:09:10;2.60;99.90
31661;DHT22;18267;52.234;7.444;2023-12-07T07:11:38;2.60;99.90
31661;DHT22;18267;52.234;7.444;2023-12-07T07:14:03;2.50;99.90
31661;DHT22;18267;52.234;7.444;2023-12-07T07:16:30;2.50;99.90
31661;DHT22;18267;52.234;7.444;2023-12-07T07:18:55;2.40;99.90
31661;DHT22;18267;52.234;7.444;2023-12-07T07:21:21;2.50;99.90
31661;DHT22;18267;52.234;7.444;2023-12-07T07:23:46;2.40;99.90
31661;DHT22;18267;52.234;7.444;2023-12-07T07:26:12;2.50;99.90
31661;DHT22;18267;52.234;7.444;2023-12-07T07:28:42;2.50;99.90
31661;DHT22;18267;52.234;7.444;2023-12-07T07:31:07;2.50;99.90
31661;DHT22;18267;52.234;7.444;2023-12-07T07:33:33;2.60;99.90
31661;DHT22;18267;52.234;7.444;2023-12-07T07:35:59;2.70;99.90
31661;DHT22;18267;52.234;7.444;2023-12-07T07:38:24;2.70;99.90
31661;DHT22;18267;52.234;7.444;2023-12-07T07:40:50;2.70;99.90
31661;DHT22;18267;52.234;7.444;2023-12-07T07:43:15;2.70;99.90
31661;DHT22;18267;52.234;7.444;2023-12-07T07:45:41;2.80;99.90
31661;DHT22;18267;52.234;7.444;2023-12-07T07:48:06;2.80;99.90
31661;DHT22;18267;52.234;7.444;2023-12-07T07:50:33;2.80;99.90
31661;DHT22;18267;52.234;7.444;2023-12-07T07:53:00;2.70;99.90
31661;DHT22;18267;52.234;7.444;2023-12-07T07:55:26;2.70;99.90
31661;DHT22;18267;52.234;7.444;2023-12-07T07:57:52;2.50;99.90
31661;DHT22;18267;52.234;7.444;2023-12-07T08:00:18;2.60;99.90
31661;DHT22;18267;52.234;7.444;2023-12-07T08:02:44;2.60;99.90
31661;DHT22;18267;52.234;7.444;2023-12-07T08:05:10;2.50;99.90
31661;DHT22;18267;52.234;7.444;2023-12-07T08:07:36;2.40;99.90
31661;DHT22;18267;52.234;7.444;2023-12-07T08:10:02;2.50;99.90
31661;DHT22;18267;52.234;7.444;2023-12-07T08:12:29;2.70;99.90
31661;DHT22;18267;52.234;7.444;2023-12-07T08:14:54;2.70;99.90
31661;DHT22;18267;52.234;7.444;2023-12-07T08:17:20;2.60;99.90
31661;DHT22;18267;52.234;7.444;2023-12-07T08:19:46;2.70;99.90
31661;DHT22;18267;52.234;7.444;2023-12-07T08:22:12;2.70;99.90
31661;DHT22;18267;52.234;7.444;2023-12-07T08:24:41;2.80;99.90
31661;DHT22;18267;52.234;7.444;2023-12-07T08:27:06;2.90;99.90
31661;DHT22;18267;52.234;7.444;2023-12-07T08:29:32;3.00;99.90
31661;DHT22;18267;52.234;7.444;2023-12-07T08:31:57;2.90;99.90
31661;DHT22;18267;52.234;7.444;2023-12-07T08:34:23;2.80;99.90
31661;DHT22;18267;52.234;7.444;2023-12-07T08:36:50;2.90;99.90
31661;DHT22;18267;52.234;7.444;2023-12-07T08:39:16;3.00;99.90
31661;DHT22;18267;52.234;7.444;2023-12-07T08:41:41;3.00;99.90
31661;DHT22;18267;52.234;7.444;2023-12-07T08:44:07;3.00;99.90
31661;DHT22;18267;52.234;7.444;2023-12-07T08:46:33;3.00;99.90
31661;DHT22;18267;52.234;7.444;2023-12-07T08:48:59;3.00;99.90
31661;DHT22;18267;52.234;7.444;2023-12-07T08:51:24;3.10;99.90
31661;DHT22;18267;52.234;7.444;2023-12-07T08:53:50;3.10;99.90
31661;DHT22;18267;52.234;7.444;2023-12-07T08:56:17;3.10;99.90
31661;DHT22;18267;52.234;7.444;2023-12-07T08:58:43;3.30;99.90
31661;DHT22;18267;52.234;7.444;2023-12-07T09:01:09;3.20;99.90
31661;DHT22;18267;52.234;7.444;2023-12-07T09:03:37;3.30;99.90
31661;DHT22;18267;52.234;7.444;2023-12-07T09:06:03;3.30;99.90
31661;DHT22;18267;52.234;7.444;2023-12-07T09:08:29;3.40;99.90
31661;DHT22;18267;52.234;7.444;2023-12-07T09:10:54;3.40;99.90
31661;DHT22;18267;52.234;7.444;2023-12-07T09:13:20;3.50;99.90
31661;DHT22;18267;52.234;7.444;2023-12-07T09:15:46;3.60;99.90
31661;DHT22;18267;52.234;7.444;2023-12-07T09:18:11;3.60;99.90
31661;DHT22;18267;52.234;7.444;2023-12-07T09:20:38;3.60;99.90
31661;DHT22;18267;52.234;7.444;2023-12-07T09:23:14;3.60;99.90
31661;DHT22;18267;52.234;7.444;2023-12-07T09:25:42;3.70;99.90
31661;DHT22;18267;52.234;7.444;2023-12-07T09:28:08;3.70;99.90
31661;DHT22;18267;52.234;7.444;2023-12-07T09:30:34;3.80;99.90
31661;DHT22;18267;52.234;7.444;2023-12-07T09:33:00;3.90;99.90
31661;DHT22;18267;52.234;7.444;2023-12-07T09:35:28;3.80;99.90
31661;DHT22;18267;52.234;7.444;2023-12-07T09:37:53;3.80;99.90
31661;DHT22;18267;52.234;7.444;2023-12-07T09:40:21;3.80;99.90
31661;DHT22;18267;52.234;7.444;2023-12-07T09:42:47;3.80;99.90
31661;DHT22;18267;52.234;7.444;2023-12-07T09:45:14;3.80;99.90
31661;DHT22;18267;52.234;7.444;2023-12-07T09:47:42;3.70;99.90
31661;DHT22;18267;52.234;7.444;2023-12-07T09:50:08;3.80;99.90
31661;DHT22;18267;52.234;7.444;2023-12-07T09:52:37;3.80;99.90
31661;DHT22;18267;52.234;7.444;2023-12-07T09:55:03;3.80;99.90
31661;DHT22;18267;52.234;7.444;2023-12-07T09:57:30;3.80;99.90
31661;DHT22;18267;52.234;7.444;2023-12-07T09:59:55;3.90;99.90
31661;DHT22;18267;52.234;7.444;2023-12-07T10:02:22;4.00;99.90
31661;DHT22;18267;52.234;7.444;2023-12-07T10:04:48;4.00;99.90
31661;DHT22;18267;52.234;7.444;2023-12-07T10:07:14;4.10;99.90
31661;DHT22;18267;52.234;7.444;2023-12-07T10:09:40;4.10;99.90
31661;DHT22;18267;52.234;7.444;2023-12-07T10:12:08;4.20;99.90
31661;DHT22;18267;52.234;7.444;2023-12-07T10:14:34;4.10;99.90
31661;DHT22;18267;52.234;7.444;2023-12-07T10:17:00;4.10;99.90
31661;DHT22;18267;52.234;7.444;2023-12-07T10:19:26;4.10;99.90
31661;DHT22;18267;52.234;7.444;2023-12-07T10:21:53;4.10;99.90
31661;DHT22;18267;52.234;7.444;2023-12-07T10:24:20;4.10;99.90
31661;DHT22;18267;52.234;7.444;2023-12-07T10:26:47;4.00;99.90
31661;DHT22;18267;52.234;7.444;2023-12-07T10:29:13;4.00;99.90
31661;DHT22;18267;52.234;7.444;2023-12-07T10:31:39;3.90;99.90
31661;DHT22;18267;52.234;7.444;2023-12-07T10:34:05;4.00;99.90
31661;DHT22;18267;52.234;7.444;2023-12-07T10:36:31;4.00;99.90
31661;DHT22;18267;52.234;7.444;2023-12-07T10:38:58;4.00;99.90
31661;DHT22;18267;52.234;7.444;2023-12-07T10:41:24;4.10;99.90
31661;DHT22;18267;52.234;7.444;2023-12-07T10:43:58;4.00;99.90
31661;DHT22;18267;52.234;7.444;2023-12-07T10:46:25;4.10;99.90
31661;DHT22;18267;52.234;7.444;2023-12-07T10:49:03;4.10;99.90
31661;DHT22;18267;52.234;7.444;2023-12-07T10:51:42;4.20;99.90
31661;DHT22;18267;52.234;7.444;2023-12-07T10:54:15;4.20;99.90
31661;DHT22;18267;52.234;7.444;2023-12-07T10:56:45;4.40;99.90
31661;DHT22;18267;52.234;7.444;2023-12-07T10:59:12;4.30;99.90
31661;DHT22;18267;52.234;7.444;2023-12-07T11:01:42;4.50;99.90
31661;DHT22;18267;52.234;7.444;2023-12-07T11:04:13;4.60;99.90
31661;DHT22;18267;52.234;7.444;2023-12-07T11:06:40;4.50;99.90
31661;DHT22;18267;52.234;7.444;2023-12-07T11:09:09;4.50;99.90
31661;DHT22;18267;52.234;7.444;2023-12-07T11:12:17;4.60;99.90
31661;DHT22;18267;52.234;7.444;2023-12-07T11:14:40;4.60;99.90
31661;DHT22;18267;52.234;7.444;2023-12-07T11:17:06;4.50;99.90
31661;DHT22;18267;52.234;7.444;2023-12-07T11:21:58;4.40;99.90
31661;DHT22;18267;52.234;7.444;2023-12-07T11:24:24;4.40;99.90
31661;DHT22;18267;52.234;7.444;2023-12-07T11:26:56;4.40;99.90
31661;DHT22;18267;52.234;7.444;2023-12-07T11:29:24;4.50;99.90
31661;DHT22;18267;52.234;7.444;2023-12-07T11:31:50;4.60;99.90
31661;DHT22;18267;52.234;7.444;2023-12-07T11:34:38;4.60;99.90
31661;DHT22;18267;52.234;7.444;2023-12-07T11:37:04;4.70;99.90
31661;DHT22;18267;52.234;7.444;2023-12-07T11:39:39;4.70;99.90
31661;DHT22;18267;52.234;7.444;2023-12-07T11:42:15;4.70;99.90
31661;DHT22;18267;52.234;7.444;2023-12-07T11:44:42;4.70;99.90
31661;DHT22;18267;52.234;7.444;2023-12-07T11:47:10;4.70;99.90
31661;DHT22;18267;52.234;7.444;2023-12-07T11:49:42;4.60;99.90
31661;DHT22;18267;52.234;7.444;2023-12-07T11:52:19;4.60;99.90
31661;DHT22;18267;52.234;7.444;2023-12-07T11:54:46;4.60;99.90
31661;DHT22;18267;52.234;7.444;2023-12-07T11:57:16;4.60;99.90
31661;DHT22;18267;52.234;7.444;2023-12-07T11:59:43;4.60;99.90
31661;DHT22;18267;52.234;7.444;2023-12-07T12:02:13;4.60;99.90
31661;DHT22;18267;52.234;7.444;2023-12-07T12:04:40;4.70;99.90
31661;DHT22;18267;52.234;7.444;2023-12-07T12:07:06;4.70;99.90
31661;DHT22;18267;52.234;7.444;2023-12-07T12:09:31;4.70;99.90
31661;DHT22;18267;52.234;7.444;2023-12-07T12:11:59;4.70;99.90
31661;DHT22;18267;52.234;7.444;2023-12-07T12:14:28;4.80;99.90
31661;DHT22;18267;52.234;7.444;2023-12-07T12:16:54;5.00;99.90
31661;DHT22;18267;52.234;7.444;2023-12-07T12:19:22;4.90;99.90
31661;DHT22;18267;52.234;7.444;2023-12-07T12:21:48;5.00;99.90
31661;DHT22;18267;52.234;7.444;2023-12-07T12:24:13;5.10;99.90
31661;DHT22;18267;52.234;7.444;2023-12-07T12:26:41;5.20;99.90
31661;DHT22;18267;52.234;7.444;2023-12-07T12:29:07;5.20;99.90
31661;DHT22;18267;52.234;7.444;2023-12-07T12:31:34;5.20;99.90
31661;DHT22;18267;52.234;7.444;2023-12-07T12:34:01;5.20;99.90
31661;DHT22;18267;52.234;7.444;2023-12-07T12:36:27;5.20;99.90
31661;DHT22;18267;52.234;7.444;2023-12-07T12:38:54;5.20;99.90
31661;DHT22;18267;52.234;7.444;2023-12-07T12:41:21;5.10;99.90
31661;DHT22;18267;52.234;7.444;2023-12-07T12:43:48;5.10;99.90
31661;DHT22;18267;52.234;7.444;2023-12-07T12:46:14;5.10;99.90
31661;DHT22;18267;52.234;7.444;2023-12-07T12:49:06;5.20;99.90
31661;DHT22;18267;52.234;7.444;2023-12-07T12:51:36;5.10;99.90
31661;DHT22;18267;52.234;7.444;2023-12-07T12:54:03;5.20;99.90
31661;DHT22;18267;52.234;7.444;2023-12-07T12:56:29;5.30;99.90
31661;DHT22;18267;52.234;7.444;2023-12-07T12:58:55;5.30;99.90
31661;DHT22;18267;52.234;7.444;2023-12-07T13:01:23;5.40;99.90
31661;DHT22;18267;52.234;7.444;2023-12-07T13:03:49;5.40;99.90
31661;DHT22;18267;52.234;7.444;2023-12-07T13:06:15;5.40;99.90
31661;DHT22;18267;52.234;7.444;2023-12-07T13:08:45;5.30;99.90
31661;DHT22;18267;52.234;7.444;2023-12-07T13:11:19;5.30;99.90
31661;DHT22;18267;52.234;7.444;2023-12-07T13:13:46;5.30;99.90
31661;DHT22;18267;52.234;7.444;2023-12-07T13:16:18;5.30;99.90
31661;DHT22;18267;52.234;7.444;2023-12-07T13:18:45;5.40;99.90
31661;DHT22;18267;52.234;7.444;2023-12-07T13:21:11;5.30;99.90
31661;DHT22;18267;52.234;7.444;2023-12-07T13:23:37;5.20;99.90
31661;DHT22;18267;52.234;7.444;2023-12-07T13:26:02;5.20;99.90
31661;DHT22;18267;52.234;7.444;2023-12-07T13:28:28;5.20;99.90
31661;DHT22;18267;52.234;7.444;2023-12-07T13:30:54;5.10;99.90
31661;DHT22;18267;52.234;7.444;2023-12-07T13:33:20;5.00;99.90
31661;DHT22;18267;52.234;7.444;2023-12-07T13:35:45;4.90;99.90
31661;DHT22;18267;52.234;7.444;2023-12-07T13:38:11;5.00;99.90
31661;DHT22;18267;52.234;7.444;2023-12-07T13:40:36;4.90;99.90
31661;DHT22;18267;52.234;7.444;2023-12-07T13:43:03;4.70;99.90
31661;DHT22;18267;52.234;7.444;2023-12-07T13:45:28;4.60;99.90
31661;DHT22;18267;52.234;7.444;2023-12-07T13:47:55;4.60;99.90
31661;DHT22;18267;52.234;7.444;2023-12-07T13:50:20;4.60;99.90
31661;DHT22;18267;52.234;7.444;2023-12-07T13:52:48;4.40;99.90
31661;DHT22;18267;52.234;7.444;2023-12-07T13:55:13;4.50;99.90
31661;DHT22;18267;52.234;7.444;2023-12-07T13:57:39;4.70;99.90
31661;DHT22;18267;52.234;7.444;2023-12-07T14:00:05;4.60;99.90
31661;DHT22;18267;52.234;7.444;2023-12-07T14:02:31;4.50;99.90
31661;DHT22;18267;52.234;7.444;2023-12-07T14:04:56;4.50;99.90
31661;DHT22;18267;52.234;7.444;2023-12-07T14:07:22;4.60;99.90
31661;DHT22;18267;52.234;7.444;2023-12-07T14:09:52;4.50;99.90
31661;DHT22;18267;52.234;7.444;2023-12-07T14:12:21;4.70;99.90
31661;DHT22;18267;52.234;7.444;2023-12-07T14:14:47;4.70;99.90
31661;DHT22;18267;52.234;7.444;2023-12-07T14:17:16;4.60;99.90
31661;DHT22;18267;52.234;7.444;2023-12-07T14:19:43;4.70;99.90
31661;DHT22;18267;52.234;7.444;2023-12-07T14:22:09;4.70;99.90
31661;DHT22;18267;52.234;7.444;2023-12-07T14:24:35;4.50;99.90
31661;DHT22;18267;52.234;7.444;2023-12-07T14:27:02;4.50;99.90
31661;DHT22;18267;52.234;7.444;2023-12-07T14:29:29;4.50;99.90
31661;DHT22;18267;52.234;7.444;2023-12-07T14:31:55;4.30;99.90
31661;DHT22;18267;52.234;7.444;2023-12-07T14:34:21;4.40;99.90
31661;DHT22;18267;52.234;7.444;2023-12-07T14:36:47;4.30;99.90
31661;DHT22;18267;52.234;7.444;2023-12-07T14:39:13;4.30;99.90
31661;DHT22;18267;52.234;7.444;2023-12-07T14:41:45;4.40;99.90
31661;DHT22;18267;52.234;7.444;2023-12-07T14:44:18;4.30;99.90
31661;DHT22;18267;52.234;7.444;2023-12-07T14:46:44;4.20;99.90
31661;DHT22;18267;52.234;7.444;2023-12-07T14:49:11;4.30;99.90
31661;DHT22;18267;52.234;7.444;2023-12-07T14:51:37;4.10;99.90
31661;DHT22;18267;52.234;7.444;2023-12-07T14:54:03;4.20;99.90
31661;DHT22;18267;52.234;7.444;2023-12-07T14:56:29;4.10;99.90
31661;DHT22;18267;52.234;7.444;2023-12-07T14:58:54;4.10;99.90
31661;DHT22;18267;52.234;7.444;2023-12-07T15:01:20;4.10;99.90
31661;DHT22;18267;52.234;7.444;2023-12-07T15:03:45;4.20;99.90
31661;DHT22;18267;52.234;7.444;2023-12-07T15:06:11;4.10;99.90
31661;DHT22;18267;52.234;7.444;2023-12-07T15:08:36;4.20;99.90
31661;DHT22;18267;52.234;7.444;2023-12-07T15:11:02;4.10;99.90
31661;DHT22;18267;52.234;7.444;2023-12-07T15:13:29;4.10;99.90
31661;DHT22;18267;52.234;7.444;2023-12-07T15:15:54;4.20;99.90
31661;DHT22;18267;52.234;7.444;2023-12-07T15:18:20;4.20;99.90
31661;DHT22;18267;52.234;7.444;2023-12-07T15:20:46;4.20;99.90
31661;DHT22;18267;52.234;7.444;2023-12-07T15:23:11;4.20;99.90
31661;DHT22;18267;52.234;7.444;2023-12-07T15:25:37;4.10;99.90
31661;DHT22;18267;52.234;7.444;2023-12-07T15:28:02;4.20;99.90
31661;DHT22;18267;52.234;7.444;2023-12-07T15:30:28;4.30;99.90
31661;DHT22;18267;52.234;7.444;2023-12-07T15:32:55;4.20;99.90
31661;DHT22;18267;52.234;7.444;2023-12-07T15:35:20;4.20;99.90
31661;DHT22;18267;52.234;7.444;2023-12-07T15:37:46;4.00;99.90
31661;DHT22;18267;52.234;7.444;2023-12-07T15:40:11;3.90;99.90
31661;DHT22;18267;52.234;7.444;2023-12-07T15:42:40;4.00;99.90
31661;DHT22;18267;52.234;7.444;2023-12-07T15:45:07;4.00;99.90